createdAt,value
2022-11-06T00:01:52.045Z,13.40
2022-11-06T00:04:20.471Z,13.50
2022-11-06T00:06:50.807Z,13.40
2022-11-06T00:09:20.357Z,13.50
2022-11-06T00:11:49.138Z,13.60
2022-11-06T00:14:18.973Z,13.50
2022-11-06T00:16:48.175Z,13.60
2022-11-06T00:19:16.776Z,13.70
2022-11-06T00:21:45.551Z,13.70
2022-11-06T00:24:14.927Z,13.70
2022-11-06T00:26:43.741Z,13.60
2022-11-06T00:29:14.180Z,13.50
2022-11-06T00:31:44.044Z,13.50
2022-11-06T00:34:12.717Z,13.50
2022-11-06T00:36:41.159Z,13.60
2022-11-06T00:39:11.146Z,13.60
2022-11-06T00:41:39.480Z,13.80
2022-11-06T00:44:07.884Z,13.90
2022-11-06T00:46:37.697Z,14.00
2022-11-06T00:49:07.538Z,13.90
2022-11-06T00:51:39.465Z,13.80
2022-11-06T00:54:09.220Z,13.80
2022-11-06T00:56:37.663Z,13.90
2022-11-06T00:59:06.802Z,13.90
2022-11-06T01:01:36.281Z,13.80
2022-11-06T01:04:06.029Z,13.80
2022-11-06T01:06:36.823Z,13.90
2022-11-06T01:09:05.543Z,13.90
2022-11-06T01:11:59.166Z,13.80
2022-11-06T01:14:23.610Z,13.80
2022-11-06T01:16:52.091Z,13.80
2022-11-06T01:19:21.183Z,13.90
2022-11-06T01:21:52.778Z,13.90
2022-11-06T01:24:22.310Z,14.00
2022-11-06T01:27:19.865Z,13.90
2022-11-06T01:29:39.655Z,14.00
2022-11-06T01:32:08.011Z,13.90
2022-11-06T01:34:36.434Z,13.80
2022-11-06T01:37:09.112Z,13.80
2022-11-06T01:39:40.081Z,13.80
2022-11-06T01:42:08.501Z,14.00
2022-11-06T01:44:55.239Z,14.00
2022-11-06T01:47:24.682Z,14.00
2022-11-06T01:49:54.410Z,14.00
2022-11-06T01:52:24.797Z,14.10
2022-11-06T01:54:56.452Z,14.10
2022-11-06T01:57:25.052Z,14.20
2022-11-06T01:59:54.324Z,14.30
2022-11-06T02:02:22.987Z,14.30
2022-11-06T02:04:51.409Z,14.20
2022-11-06T02:07:20.946Z,14.30
2022-11-06T02:09:50.806Z,14.30
2022-11-06T02:12:24.297Z,14.40
2022-11-06T02:14:58.916Z,14.50
2022-11-06T02:17:31.030Z,14.60
2022-11-06T02:20:02.667Z,14.60
2022-11-06T02:22:41.420Z,14.50
2022-11-06T02:25:22.435Z,14.70
2022-11-06T02:27:55.460Z,14.80
2022-11-06T02:30:24.053Z,14.80
2022-11-06T02:32:59.168Z,14.80
2022-11-06T02:35:31.111Z,14.90
2022-11-06T02:38:02.628Z,14.90
2022-11-06T02:40:33.466Z,14.80
2022-11-06T02:43:05.895Z,14.80
2022-11-06T02:45:37.389Z,14.80
2022-11-06T02:48:09.140Z,14.80
2022-11-06T02:50:41.562Z,14.60
2022-11-06T02:53:11.250Z,14.50
2022-11-06T02:55:40.580Z,14.50
2022-11-06T02:58:14.048Z,14.40
2022-11-06T03:00:43.605Z,14.50
2022-11-06T03:03:14.253Z,14.20
2022-11-06T03:05:46.733Z,14.00
2022-11-06T03:08:19.103Z,14.00
2022-11-06T03:10:51.175Z,14.00
2022-11-06T03:13:22.798Z,13.90
2022-11-06T03:15:55.290Z,13.90
2022-11-06T03:18:26.157Z,13.90
2022-11-06T03:20:58.339Z,14.00
2022-11-06T03:23:29.672Z,14.00
2022-11-06T03:26:03.042Z,13.90
2022-11-06T03:28:34.027Z,14.00
2022-11-06T03:31:06.583Z,14.00
2022-11-06T03:33:37.519Z,14.10
2022-11-06T03:36:09.178Z,14.00
2022-11-06T03:38:42.177Z,14.10
2022-11-06T03:41:12.693Z,14.10
2022-11-06T03:43:44.384Z,14.00
2022-11-06T03:46:14.462Z,14.00
2022-11-06T03:48:45.526Z,14.10
2022-11-06T03:51:16.412Z,14.10
2022-11-06T03:53:48.014Z,14.00
2022-11-06T03:56:22.957Z,13.90
2022-11-06T03:58:55.318Z,13.90
2022-11-06T04:01:26.518Z,14.00
2022-11-06T04:03:56.596Z,13.90
2022-11-06T04:06:26.506Z,14.00
2022-11-06T04:09:15.130Z,14.10
2022-11-06T04:12:01.063Z,14.00
2022-11-06T04:14:32.397Z,14.00
2022-11-06T04:17:03.306Z,14.10
2022-11-06T04:19:31.681Z,14.10
2022-11-06T04:22:07.516Z,14.10
2022-11-06T04:24:58.118Z,14.10
2022-11-06T04:27:33.876Z,14.20
2022-11-06T04:30:09.141Z,14.20
2022-11-06T04:32:41.843Z,14.30
2022-11-06T04:35:13.998Z,14.30
2022-11-06T04:37:44.604Z,14.30
2022-11-06T04:40:15.925Z,14.30
2022-11-06T04:42:48.995Z,14.30
2022-11-06T04:45:21.202Z,14.40
2022-11-06T04:47:50.817Z,14.30
2022-11-06T04:50:20.285Z,14.30
2022-11-06T04:52:49.438Z,14.30
2022-11-06T04:55:18.542Z,14.30
2022-11-06T04:57:47.005Z,14.30
2022-11-06T05:00:15.941Z,14.40
2022-11-06T05:02:45.697Z,14.40
2022-11-06T05:05:14.136Z,14.40
2022-11-06T05:07:42.483Z,14.40
2022-11-06T05:10:10.997Z,14.20
2022-11-06T05:12:39.408Z,14.20
2022-11-06T05:15:08.501Z,14.20
2022-11-06T05:17:36.938Z,14.20
2022-11-06T05:20:07.439Z,14.00
2022-11-06T05:22:53.081Z,14.00
2022-11-06T05:25:21.521Z,14.10
2022-11-06T05:27:49.946Z,14.00
2022-11-06T05:30:18.455Z,14.00
2022-11-06T05:32:46.804Z,14.00
2022-11-06T05:35:16.633Z,14.10
2022-11-06T05:37:45.066Z,14.10
2022-11-06T05:40:13.977Z,14.10
2022-11-06T05:42:43.339Z,13.90
2022-11-06T05:45:12.205Z,13.90
2022-11-06T05:47:41.255Z,13.90
2022-11-06T05:50:10.276Z,14.00
2022-11-06T05:52:40.137Z,14.10
2022-11-06T05:55:14.443Z,14.20
2022-11-06T05:57:43.693Z,14.30
2022-11-06T06:00:13.619Z,14.20
2022-11-06T06:02:42.432Z,14.00
2022-11-06T06:05:10.935Z,13.90
2022-11-06T06:07:40.734Z,13.90
2022-11-06T06:10:09.537Z,13.90
2022-11-06T06:12:39.602Z,13.80
2022-11-06T06:15:08.874Z,13.80
2022-11-06T06:17:37.238Z,13.70
2022-11-06T06:20:06.038Z,13.70
2022-11-06T06:22:34.402Z,13.60
2022-11-06T06:25:04.228Z,13.60
2022-11-06T06:27:32.767Z,13.50
2022-11-06T06:30:01.162Z,13.50
2022-11-06T06:32:29.543Z,13.50
2022-11-06T06:34:58.010Z,13.50
2022-11-06T06:37:26.387Z,13.50
2022-11-06T06:39:54.862Z,13.50
2022-11-06T06:42:30.178Z,13.50
2022-11-06T06:44:59.610Z,13.40
2022-11-06T06:47:28.220Z,13.50
2022-11-06T06:49:56.586Z,13.60
2022-11-06T06:52:25.078Z,13.60
2022-11-06T06:54:53.530Z,13.60
2022-11-06T06:57:21.942Z,13.60
2022-11-06T06:59:51.781Z,13.70
2022-11-06T07:02:20.234Z,13.70
2022-11-06T07:04:48.672Z,13.80
2022-11-06T07:07:17.100Z,13.80
2022-11-06T07:09:45.533Z,13.90
2022-11-06T07:12:13.875Z,14.00
2022-11-06T07:14:42.286Z,13.90
2022-11-06T07:17:12.008Z,13.90
2022-11-06T07:19:40.374Z,14.10
2022-11-06T07:22:08.758Z,14.10
2022-11-06T07:24:37.153Z,14.20
2022-11-06T07:27:05.649Z,14.20
2022-11-06T07:29:34.040Z,14.30
2022-11-06T07:32:02.482Z,14.30
2022-11-06T07:34:32.344Z,14.40
2022-11-06T07:37:05.163Z,14.30
2022-11-06T07:39:35.830Z,14.40
2022-11-06T07:42:04.279Z,14.40
2022-11-06T07:44:32.606Z,14.30
2022-11-06T07:47:01.032Z,14.30
2022-11-06T07:49:29.416Z,14.30
2022-11-06T07:51:59.248Z,14.40
2022-11-06T07:54:27.802Z,14.40
2022-11-06T07:56:56.180Z,14.30
2022-11-06T07:59:25.393Z,14.50
2022-11-06T08:01:53.945Z,14.50
2022-11-06T08:04:22.527Z,14.60
2022-11-06T08:06:50.917Z,14.70
2022-11-06T08:09:20.731Z,14.80
2022-11-06T08:11:49.788Z,14.90
2022-11-06T08:14:18.330Z,15.10
2022-11-06T08:16:46.747Z,15.30
2022-11-06T08:19:15.084Z,15.40
2022-11-06T08:21:43.517Z,15.40
2022-11-06T08:24:12.052Z,15.30
2022-11-06T08:26:41.841Z,15.40
2022-11-06T08:29:10.459Z,15.40
2022-11-06T08:31:38.811Z,15.50
2022-11-06T08:34:08.962Z,15.50
2022-11-06T08:36:39.047Z,15.50
2022-11-06T08:39:07.479Z,15.60
2022-11-06T08:41:35.871Z,15.50
2022-11-06T08:44:05.845Z,15.60
2022-11-06T08:46:34.275Z,15.60
2022-11-06T08:49:02.631Z,15.60
2022-11-06T08:51:31.067Z,15.60
2022-11-06T08:53:59.713Z,15.60
2022-11-06T08:56:28.117Z,15.60
2022-11-06T08:58:56.561Z,15.60
2022-11-06T09:01:26.486Z,15.60
2022-11-06T09:03:54.964Z,15.70
2022-11-06T09:06:23.351Z,15.70
2022-11-06T09:08:51.831Z,15.80
2022-11-06T09:11:20.243Z,15.80
2022-11-06T09:13:48.716Z,15.80
2022-11-06T09:16:17.146Z,15.90
2022-11-06T09:18:46.908Z,15.90
2022-11-06T09:21:15.454Z,15.90
2022-11-06T09:23:44.603Z,16.00
2022-11-06T09:26:12.967Z,16.00
2022-11-06T09:28:41.372Z,16.10
2022-11-06T09:31:10.126Z,16.20
2022-11-06T09:33:38.584Z,16.10
2022-11-06T09:36:09.223Z,16.10
2022-11-06T09:38:37.560Z,16.20
2022-11-06T09:41:06.227Z,16.30
2022-11-06T09:46:36.032Z,16.30
2022-11-06T09:49:08.546Z,16.40
2022-11-06T09:51:41.388Z,16.40
2022-11-06T09:54:14.723Z,16.30
2022-11-06T09:56:43.634Z,16.30
2022-11-06T09:59:14.118Z,16.30
2022-11-06T10:01:44.089Z,16.20
2022-11-06T10:04:20.870Z,16.10
2022-11-06T10:06:50.921Z,16.10
2022-11-06T10:09:19.309Z,16.10
2022-11-06T10:11:54.001Z,16.10
2022-11-06T10:14:29.619Z,16.10
2022-11-06T10:17:00.982Z,16.10
2022-11-06T10:19:38.268Z,16.10
2022-11-06T10:22:11.663Z,16.20
2022-11-06T10:24:45.363Z,16.20
2022-11-06T10:27:16.975Z,16.10
2022-11-06T10:30:03.251Z,16.00
2022-11-06T10:32:36.899Z,16.00
2022-11-06T10:35:07.529Z,16.00
2022-11-06T10:37:41.175Z,15.90
2022-11-06T10:40:16.825Z,15.90
2022-11-06T10:42:46.822Z,15.90
2022-11-06T10:45:16.124Z,16.00
2022-11-06T10:47:46.509Z,15.90
2022-11-06T10:50:16.148Z,15.90
2022-11-06T10:52:50.244Z,15.80
2022-11-06T10:55:36.263Z,15.70
2022-11-06T10:58:06.139Z,15.60
2022-11-06T11:00:34.941Z,15.60
2022-11-06T11:03:04.560Z,15.60
2022-11-06T11:05:36.665Z,15.60
2022-11-06T11:08:06.622Z,15.70
2022-11-06T11:10:35.598Z,15.80
2022-11-06T11:13:08.511Z,15.70
2022-11-06T11:15:43.509Z,15.70
2022-11-06T11:18:18.121Z,15.70
2022-11-06T11:20:47.376Z,15.70
2022-11-06T11:23:18.379Z,15.70
2022-11-06T11:25:47.766Z,15.60
2022-11-06T11:28:27.930Z,15.70
2022-11-06T11:30:57.043Z,15.60
2022-11-06T11:33:26.718Z,15.60
2022-11-06T11:35:55.618Z,15.50
2022-11-06T11:38:26.203Z,15.60
2022-11-06T11:41:06.141Z,15.60
2022-11-06T11:43:34.874Z,15.50
2022-11-06T11:46:13.475Z,15.50
2022-11-06T11:48:42.740Z,15.50
2022-11-06T11:51:17.268Z,15.50
2022-11-06T11:53:47.125Z,15.40
2022-11-06T11:56:26.555Z,15.50
2022-11-06T11:59:04.889Z,15.40
2022-11-06T12:01:38.230Z,15.40
2022-11-06T12:04:15.177Z,15.50
2022-11-06T12:06:54.907Z,15.50
2022-11-06T12:09:25.817Z,15.50
2022-11-06T12:11:55.281Z,15.60
2022-11-06T12:14:33.845Z,15.70
2022-11-06T12:17:04.971Z,15.70
2022-11-06T12:19:34.862Z,15.70
2022-11-06T12:22:06.432Z,15.80
2022-11-06T12:24:39.466Z,15.80
2022-11-06T12:27:12.167Z,15.90
2022-11-06T12:29:42.006Z,16.00
2022-11-06T12:32:15.667Z,16.20
2022-11-06T12:34:48.366Z,16.30
2022-11-06T12:37:21.268Z,16.30
2022-11-06T12:39:55.554Z,16.40
2022-11-06T12:42:26.980Z,16.40
2022-11-06T12:44:55.557Z,16.40
2022-11-06T12:47:30.139Z,16.30
2022-11-06T12:50:13.758Z,16.40
2022-11-06T12:53:06.033Z,16.40
2022-11-06T12:55:37.453Z,16.30
2022-11-06T12:58:26.937Z,16.30
2022-11-06T13:01:02.175Z,16.30
2022-11-06T13:03:36.727Z,16.40
2022-11-06T13:06:13.013Z,16.30
2022-11-06T13:08:45.896Z,16.30
2022-11-06T13:11:22.240Z,16.40
2022-11-06T13:13:58.469Z,16.50
2022-11-06T13:16:30.400Z,16.50
2022-11-06T13:19:02.537Z,16.60
2022-11-06T13:21:34.483Z,16.70
2022-11-06T13:24:06.147Z,16.60
2022-11-06T13:26:39.131Z,16.60
2022-11-06T13:29:10.869Z,16.60
2022-11-06T13:31:41.384Z,16.60
2022-11-06T13:34:13.837Z,16.60
2022-11-06T13:36:42.344Z,16.50
2022-11-06T13:39:18.270Z,16.50
2022-11-06T13:41:48.276Z,16.50
2022-11-06T13:44:17.094Z,16.50
2022-11-06T13:46:52.874Z,16.40
2022-11-06T13:49:24.786Z,16.30
2022-11-06T13:51:55.452Z,16.30
2022-11-06T13:54:28.860Z,16.40
2022-11-06T13:57:13.614Z,16.40
2022-11-06T13:59:57.975Z,16.40
2022-11-06T14:02:36.948Z,16.30
2022-11-06T14:05:27.496Z,16.30
2022-11-06T14:07:56.548Z,16.30
2022-11-06T14:10:28.357Z,16.20
2022-11-06T14:12:59.183Z,16.30
2022-11-06T14:15:31.851Z,16.30
2022-11-06T14:18:01.606Z,16.30
2022-11-06T14:20:31.873Z,16.30
2022-11-06T14:23:33.299Z,16.30
2022-11-06T14:26:02.319Z,16.30
2022-11-06T14:28:33.624Z,16.30
2022-11-06T14:31:23.781Z,16.30
2022-11-06T14:34:03.332Z,16.40
2022-11-06T14:36:34.121Z,16.30
2022-11-06T14:39:03.905Z,16.40
2022-11-06T14:41:47.576Z,16.20
2022-11-06T14:44:21.863Z,16.20
2022-11-06T14:46:50.975Z,16.10
2022-11-06T14:49:22.636Z,16.10
2022-11-06T14:51:58.860Z,16.10
2022-11-06T14:54:27.271Z,16.10
2022-11-06T14:56:56.206Z,16.10
2022-11-06T14:59:32.832Z,16.10
2022-11-06T15:02:05.918Z,16.10
2022-11-06T15:04:35.397Z,16.00
2022-11-06T15:07:11.251Z,16.10
2022-11-06T15:09:46.406Z,16.10
2022-11-06T15:12:14.884Z,16.10
2022-11-06T15:14:56.436Z,16.10
2022-11-06T15:17:26.433Z,16.10
2022-11-06T15:20:00.375Z,16.10
2022-11-06T15:22:33.526Z,16.10
2022-11-06T15:25:04.698Z,16.00
2022-11-06T15:27:36.843Z,16.00
2022-11-06T15:30:16.046Z,16.00
2022-11-06T15:32:45.999Z,16.10
2022-11-06T15:35:16.423Z,16.00
2022-11-06T15:37:46.328Z,15.90
2022-11-06T15:40:25.269Z,16.00
2022-11-06T15:42:53.782Z,16.00
2022-11-06T15:45:25.187Z,16.00
2022-11-06T15:47:54.085Z,16.00
2022-11-06T15:50:23.191Z,15.90
2022-11-06T15:52:51.734Z,15.90
2022-11-06T15:55:27.004Z,15.90
2022-11-06T15:57:55.625Z,15.90
2022-11-06T16:00:26.600Z,15.90
2022-11-06T16:03:03.542Z,15.90
2022-11-06T16:05:33.717Z,15.90
2022-11-06T16:08:02.281Z,16.00
2022-11-06T16:10:30.865Z,16.00
2022-11-06T16:12:59.564Z,16.00
2022-11-06T16:15:48.747Z,15.90
2022-11-06T16:18:22.796Z,16.10
2022-11-06T16:20:52.506Z,16.10
2022-11-06T16:23:26.794Z,16.10
2022-11-06T16:26:01.621Z,16.00
2022-11-06T16:28:31.381Z,16.00
2022-11-06T16:31:06.307Z,16.10
2022-11-06T16:33:34.730Z,16.00
2022-11-06T16:36:10.327Z,16.00
2022-11-06T16:38:42.035Z,16.10
2022-11-06T16:41:34.383Z,16.10
2022-11-06T16:44:31.801Z,16.10
2022-11-06T16:47:18.083Z,16.10
2022-11-06T16:49:52.812Z,16.00
2022-11-06T16:52:27.301Z,16.00
2022-11-06T16:54:58.159Z,16.00
2022-11-06T16:57:27.745Z,16.00
2022-11-06T16:59:57.607Z,15.90
2022-11-06T17:02:28.951Z,15.90
2022-11-06T17:05:10.790Z,15.90
2022-11-06T17:07:39.603Z,15.90
2022-11-06T17:10:26.267Z,15.90
2022-11-06T17:12:54.780Z,15.80
2022-11-06T17:15:23.185Z,15.80
2022-11-06T17:17:52.950Z,15.80
2022-11-06T17:20:21.444Z,15.80
2022-11-06T17:22:50.874Z,15.80
2022-11-06T17:25:19.551Z,15.60
2022-11-06T17:27:48.041Z,15.70
2022-11-06T17:30:16.815Z,15.60
2022-11-06T17:32:45.154Z,15.60
2022-11-06T17:35:15.011Z,15.60
2022-11-06T17:37:43.374Z,15.60
2022-11-06T17:40:12.502Z,15.60
2022-11-06T17:42:40.981Z,15.60
2022-11-06T17:45:10.336Z,15.60
2022-11-06T17:47:38.795Z,15.60
2022-11-06T17:50:07.782Z,15.60
2022-11-06T17:52:37.694Z,15.60
2022-11-06T17:55:07.188Z,15.60
2022-11-06T17:57:35.654Z,15.60
2022-11-06T18:00:04.449Z,15.60
2022-11-06T18:02:58.999Z,15.50
2022-11-06T18:05:22.030Z,15.40
2022-11-06T18:07:52.168Z,15.50
2022-11-06T18:10:20.573Z,15.50
2022-11-06T18:12:51.470Z,15.50
2022-11-06T18:15:19.816Z,15.50
2022-11-06T18:17:48.647Z,15.50
2022-11-06T18:20:17.501Z,15.40
2022-11-06T18:22:46.416Z,15.50
2022-11-06T18:25:16.466Z,15.40
2022-11-06T18:27:47.203Z,15.40
2022-11-06T18:30:16.176Z,15.40
2022-11-06T18:32:44.602Z,15.40
2022-11-06T18:35:13.166Z,15.40
2022-11-06T18:37:42.041Z,15.50
2022-11-06T18:40:11.085Z,15.50
2022-11-06T18:42:40.823Z,15.50
2022-11-06T18:45:09.518Z,15.50
2022-11-06T18:47:37.959Z,15.40
2022-11-06T18:50:06.887Z,15.40
2022-11-06T18:52:56.479Z,15.40
2022-11-06T18:55:24.107Z,15.40
2022-11-06T18:57:54.032Z,15.40
2022-11-06T19:00:22.575Z,15.30
2022-11-06T19:02:54.126Z,15.20
2022-11-06T19:05:22.527Z,15.10
2022-11-06T19:07:55.000Z,15.10
2022-11-06T19:10:28.686Z,15.10
2022-11-06T19:12:59.699Z,15.10
2022-11-06T19:15:28.249Z,15.10
2022-11-06T19:17:57.056Z,15.20
2022-11-06T19:20:25.710Z,15.10
2022-11-06T19:22:54.917Z,15.00
2022-11-06T19:25:24.028Z,15.10
2022-11-06T19:27:54.964Z,15.00
2022-11-06T19:30:25.009Z,15.00
2022-11-06T19:32:53.545Z,15.00
2022-11-06T19:35:22.050Z,15.00
2022-11-06T19:37:50.632Z,15.00
2022-11-06T19:40:19.768Z,15.00
2022-11-06T19:42:48.365Z,15.00
2022-11-06T19:45:16.790Z,15.00
2022-11-06T19:47:46.596Z,15.00
2022-11-06T19:50:15.353Z,15.00
2022-11-06T19:52:47.379Z,15.00
2022-11-06T19:55:26.453Z,15.00
2022-11-06T19:57:58.459Z,14.90
2022-11-06T20:00:26.877Z,14.90
2022-11-06T20:02:58.093Z,14.90
2022-11-06T20:05:26.621Z,14.90
2022-11-06T20:07:55.285Z,14.90
2022-11-06T20:10:23.752Z,14.90
2022-11-06T20:12:52.213Z,14.80
2022-11-06T20:15:23.933Z,14.80
2022-11-06T20:17:52.796Z,14.80
2022-11-06T20:20:22.627Z,14.80
2022-11-06T20:22:54.648Z,14.90
2022-11-06T20:25:23.175Z,14.90
2022-11-06T20:27:51.586Z,14.90
2022-11-06T20:30:20.172Z,14.90
2022-11-06T20:32:48.524Z,14.90
2022-11-06T20:35:18.324Z,14.90
2022-11-06T20:37:48.156Z,14.80
2022-11-06T20:40:16.624Z,14.80
2022-11-06T20:42:44.993Z,14.80
2022-11-06T20:45:13.393Z,14.70
2022-11-06T20:47:42.241Z,14.80
2022-11-06T20:50:10.789Z,14.80
2022-11-06T20:52:39.211Z,14.80
2022-11-06T20:55:09.500Z,14.80
2022-11-06T20:57:37.904Z,14.80
2022-11-06T21:00:06.738Z,14.80
2022-11-06T21:02:35.361Z,14.70
2022-11-06T21:05:03.918Z,14.70
2022-11-06T21:07:32.512Z,14.60
2022-11-06T21:10:00.974Z,14.70
2022-11-06T21:12:30.712Z,14.60
2022-11-06T21:14:59.312Z,14.70
2022-11-06T21:17:27.872Z,14.60
2022-11-06T21:19:56.621Z,14.60
2022-11-06T21:22:25.408Z,14.60
2022-11-06T21:24:53.938Z,14.50
2022-11-06T21:27:22.507Z,14.50
2022-11-06T21:29:52.287Z,14.50
2022-11-06T21:32:20.774Z,14.50
2022-11-06T21:34:52.045Z,14.40
2022-11-06T21:37:20.697Z,14.30
2022-11-06T21:39:49.425Z,14.20
2022-11-06T21:42:18.188Z,14.00
2022-11-06T21:44:46.868Z,14.00
2022-11-06T21:47:16.664Z,14.00
2022-11-06T21:49:53.938Z,14.20
2022-11-06T21:52:40.773Z,14.20
2022-11-06T21:55:27.497Z,14.30
2022-11-06T21:57:56.063Z,14.30
2022-11-06T22:00:24.407Z,14.30
2022-11-06T22:02:54.884Z,14.30
2022-11-06T22:05:23.570Z,14.30
2022-11-06T22:07:54.154Z,14.10
2022-11-06T22:10:22.983Z,14.00
2022-11-06T22:12:51.385Z,14.20
2022-11-06T22:15:20.038Z,14.10
2022-11-06T22:17:48.666Z,14.10
2022-11-06T22:20:18.589Z,14.10
2022-11-06T22:22:49.911Z,13.90
2022-11-06T22:25:21.512Z,14.00
2022-11-06T22:27:50.332Z,13.90
2022-11-06T22:30:18.888Z,13.90
2022-11-06T22:32:47.601Z,13.90
2022-11-06T22:35:15.995Z,13.70
2022-11-06T22:37:47.733Z,13.70
2022-11-06T22:40:16.292Z,13.80
2022-11-06T22:42:49.837Z,13.90
2022-11-06T22:45:20.102Z,14.00
2022-11-06T22:47:48.768Z,14.00
2022-11-06T22:50:17.341Z,14.00
2022-11-06T22:52:47.113Z,14.00
2022-11-06T22:55:15.597Z,14.00
2022-11-06T22:57:44.003Z,14.00
2022-11-06T23:00:13.465Z,14.10
2022-11-06T23:02:41.948Z,14.10
2022-11-06T23:05:10.695Z,14.10
2022-11-06T23:07:39.360Z,14.10
2022-11-06T23:10:10.146Z,14.10
2022-11-06T23:12:39.183Z,14.20
2022-11-06T23:15:08.622Z,14.20
2022-11-06T23:17:37.275Z,14.20
2022-11-06T23:20:06.078Z,14.20
2022-11-06T23:22:37.699Z,14.20
2022-11-06T23:25:06.883Z,14.30
2022-11-06T23:27:37.554Z,14.30
2022-11-06T23:30:07.098Z,14.30
2022-11-06T23:32:36.295Z,14.30
2022-11-06T23:35:05.409Z,14.30
2022-11-06T23:37:35.045Z,14.30
2022-11-06T23:40:03.785Z,14.40
2022-11-06T23:42:32.227Z,14.30
2022-11-06T23:45:19.565Z,14.30
2022-11-06T23:47:49.200Z,14.30
2022-11-06T23:50:18.384Z,14.30
2022-11-06T23:52:46.852Z,14.30
2022-11-06T23:55:15.193Z,14.20
2022-11-06T23:57:43.661Z,14.10
